»·PEaware :: WAT390 KSFO-KEUG

WAT390 :: KSFO-KEUG

FLIGHT INFORMATION

Flight Status: Arrived
Operator:
Walker Air Transport
More flights by this operator :: More flights under this callsign
Pilot: Ewen S. (18928)
Aircraft: BOEING 737-200
(B732)
More flights by this aircraft type
Origin: KSFO San Francisco Intl
United States
Destination: KEUG Mahlon Sweet
United States
More flights between these airports :: More routes between these airports
Route: MOLEN8 MOLEN V199 ENI J143 RBG V448 EUG
File this flight plan on PilotEdge
Remarks:
Altitude:
(Current/Filed)
26,000ft
Speed:
(Current/Filed)
450kts
Departed: 20-Feb-21 04:06 PM
Arrived: 20-Feb-21 05:25 PM
Distance/Time
Traveled:
392nm/1:19
Distance/Time
To Go:
Arrived

Flight Plot

Page will automatically refresh every two minutes.

Flight plan parsing failed; only flown route is shown


Map Options




Map Legend


Flown Route
Filed Route
Departure Airport
Arrival Airport
Navaid (VOR, NDB)
Fix

Horizontal Profiles

Position Reports

Time Latitude Longitude Heading Altitude Ground
Speed
20-Feb-21 15:47 37.617704 -122.382837 135 17ft 0kts
20-Feb-21 15:48 37.617704 -122.382837 135 17ft 0kts
20-Feb-21 15:49 37.617704 -122.382837 135 17ft 0kts
20-Feb-21 15:50 37.617704 -122.382837 135 17ft 0kts
20-Feb-21 15:51 37.617704 -122.382837 135 17ft 0kts
20-Feb-21 15:52 37.617704 -122.382837 135 17ft 0kts
20-Feb-21 15:53 37.617704 -122.382837 135 17ft 0kts
20-Feb-21 15:54 37.617705 -122.382838 135 17ft 0kts
20-Feb-21 15:55 37.617756 -122.382903 134 17ft 2kts
20-Feb-21 15:56 37.618025 -122.383427 57 17ft 2kts
20-Feb-21 15:57 37.617941 -122.383524 37 17ft 0kts
20-Feb-21 15:58 37.618050 -122.383389 49 17ft 5kts
20-Feb-21 15:59 37.619185 -122.382425 11 17ft 0kts
20-Feb-21 16:00 37.619164 -122.380831 118 18ft 21kts
20-Feb-21 16:01 37.616197 -122.372770 118 18ft 23kts
20-Feb-21 16:02 37.612745 -122.365651 117 17ft 24kts
20-Feb-21 16:03 37.610510 -122.359532 65 19ft 7kts
20-Feb-21 16:04 37.611739 -122.358762 338 19ft 13kts
20-Feb-21 16:05 37.627137 -122.392129 300 1069ft 172kts
20-Feb-21 16:06 37.648605 -122.451967 295 3071ft 243kts
20-Feb-21 16:07 37.689923 -122.509796 331 5154ft 226kts
20-Feb-21 16:08 37.723064 -122.565960 308 7705ft 237kts
20-Feb-21 16:09 37.759036 -122.634697 305 11042ft 229kts
20-Feb-21 16:10 37.791464 -122.700284 308 13778ft 221kts
20-Feb-21 16:11 37.827884 -122.766455 309 15236ft 248kts
20-Feb-21 16:12 37.869239 -122.841323 308 16806ft 267kts
20-Feb-21 16:13 37.910860 -122.920116 307 18592ft 271kts
20-Feb-21 16:14 37.952714 -123.001636 306 20077ft 279kts
20-Feb-21 16:15 37.997100 -123.084640 320 21412ft 284kts
20-Feb-21 16:16 38.076160 -123.101570 350 22652ft 297kts
20-Feb-21 16:17 38.159711 -123.110054 348 23782ft 302kts
20-Feb-21 16:18 38.243723 -123.124406 345 24803ft 308kts
20-Feb-21 16:19 38.329117 -123.143632 344 25740ft 313kts
20-Feb-21 16:20 38.415575 -123.162926 345 26383ft 324kts
20-Feb-21 16:21 38.508300 -123.179815 347 26397ft 346kts
20-Feb-21 16:22 38.606337 -123.194984 350 26394ft 360kts
20-Feb-21 16:23 38.707679 -123.215114 353 26395ft 372kts
20-Feb-21 16:24 38.812484 -123.230025 352 26395ft 382kts
20-Feb-21 16:25 38.918819 -123.249246 351 26394ft 388kts
20-Feb-21 16:26 39.026910 -123.269330 351 26395ft 396kts
20-Feb-21 16:27 39.137199 -123.276459 359 26398ft 404kts
20-Feb-21 16:28 39.251329 -123.278035 358 26394ft 411kts
20-Feb-21 16:29 39.367168 -123.280648 357 26394ft 415kts
20-Feb-21 16:30 39.477570 -123.283262 357 26393ft 418kts
20-Feb-21 16:31 39.594487 -123.286049 357 26413ft 419kts
20-Feb-21 16:32 39.711468 -123.288812 357 26442ft 420kts
20-Feb-21 16:33 39.828723 -123.291548 357 26439ft 421kts
20-Feb-21 16:34 39.946214 -123.294281 357 26439ft 421kts
20-Feb-21 16:35 40.063328 -123.296795 357 26439ft 421kts
20-Feb-21 16:36 40.180503 -123.299278 357 26442ft 421kts
20-Feb-21 16:37 40.297282 -123.302259 357 26479ft 422kts
20-Feb-21 16:38 40.415534 -123.305470 357 26485ft 422kts
20-Feb-21 16:39 40.533431 -123.308137 357 26485ft 422kts
20-Feb-21 16:40 40.651327 -123.310772 357 26484ft 422kts
20-Feb-21 16:42 40.768776 -123.313422 357 26492ft 422kts
20-Feb-21 16:43 40.886923 -123.316171 357 26460ft 422kts
20-Feb-21 16:44 41.004865 -123.319008 357 26465ft 421kts
20-Feb-21 16:45 41.119545 -123.321872 356 26470ft 421kts
20-Feb-21 16:46 41.237538 -123.324882 356 26467ft 423kts
20-Feb-21 16:47 41.354153 -123.327871 356 26487ft 423kts
20-Feb-21 16:48 41.473178 -123.330817 356 26515ft 424kts
20-Feb-21 16:49 41.592145 -123.338366 356 26512ft 424kts
20-Feb-21 16:50 41.710170 -123.331277 1 26512ft 427kts
20-Feb-21 16:51 41.829269 -123.315515 2 26511ft 428kts
20-Feb-21 16:52 41.946944 -123.305294 358 26512ft 426kts
20-Feb-21 16:53 42.065081 -123.308835 353 26520ft 423kts
20-Feb-21 16:54 42.180841 -123.323504 351 26518ft 424kts
20-Feb-21 16:55 42.299432 -123.338619 353 26521ft 425kts
20-Feb-21 16:56 42.418868 -123.342985 357 26521ft 427kts
20-Feb-21 16:57 42.537807 -123.338396 358 26521ft 428kts
20-Feb-21 16:58 42.655955 -123.335752 356 26492ft 401kts
20-Feb-21 16:59 42.760455 -123.339206 354 24861ft 366kts
20-Feb-21 17:00 42.854582 -123.343900 354 24464ft 307kts
20-Feb-21 17:01 42.941712 -123.346624 354 24490ft 323kts
20-Feb-21 17:02 43.033612 -123.348550 354 22948ft 333kts
20-Feb-21 17:03 43.123010 -123.350480 354 21905ft 326kts
20-Feb-21 17:03 43.198966 -123.351120 357 20689ft 323kts
20-Feb-21 17:05 43.303374 -123.343403 358 18626ft 317kts
20-Feb-21 17:06 43.384977 -123.337554 358 17064ft 312kts
20-Feb-21 17:06 43.457126 -123.332273 358 15691ft 308kts
20-Feb-21 17:07 43.541140 -123.314751 2 14479ft 293kts
20-Feb-21 17:09 43.633295 -123.302974 358 12777ft 280kts
20-Feb-21 17:10 43.711100 -123.295658 0 10762ft 283kts
20-Feb-21 17:11 43.784933 -123.283790 4 9990ft 262kts
20-Feb-21 17:11 43.841749 -123.271118 4 9990ft 232kts
20-Feb-21 17:12 43.907474 -123.258310 2 9117ft 249kts
20-Feb-21 17:13 43.977388 -123.247315 3 8115ft 251kts
20-Feb-21 17:14 44.046637 -123.235448 3 6963ft 250kts
20-Feb-21 17:15 44.113189 -123.224324 1 6034ft 240kts
20-Feb-21 17:16 44.173349 -123.220147 358 5993ft 192kts
20-Feb-21 17:17 44.224683 -123.216269 358 5499ft 180kts
20-Feb-21 17:18 44.270572 -123.188997 349 4281ft 177kts
20-Feb-21 17:19 44.265492 -123.226816 169 2550ft 164kts
20-Feb-21 17:20 44.223899 -123.219405 183 2117ft 149kts
20-Feb-21 17:21 44.186690 -123.219446 184 1376ft 133kts
20-Feb-21 17:22 44.149962 -123.219210 184 676ft 131kts
20-Feb-21 17:23 44.119063 -123.218949 179 375ft 50kts
20-Feb-21 17:24 44.113688 -123.217363 86 373ft 1kts
20-Feb-21 17:25 44.116028 -123.216934 358 374ft 15kts
20-Feb-21 17:26 44.119312 -123.214817 67 376ft 8kts

Navigation Log

Ident Type
Flight plan parsing failed, navigation log unavailable